• Join FlightAware (Why Join?)
  • Login
  • US Flag 
01:39AM EDT


 

Airport Tracker/Info


-or-


 

Live Flight TrackerFlight Track Log ✈ KAP17 ✈ 09-May-2013 ✈ KLEB - KBOS

Flight Track Log - Related Links

Times and Time Zones

All times are in EDT time to prevent confusion due to time zone crossing. See the KAP17 flight status page for this flight to view local times or setup timezone preferences in your user account.

Time Position Orientation Groundspeed Altitude Reporting Facility
EDT Latitude Longitude Course Direction KTS MPH feet Rate Location/Type
07:18AM 43.6631 -72.2564 110° East 154 177 4,000  Level Boston Center
07:19AM 43.6506 -72.2078 110° East 143 165 4,700 660 Climbing Boston Center
07:20AM 43.6381 -72.1619 111° Southeast 132 152 5,400 600 Climbing Boston Center
07:21AM 43.6128 -72.1247 133° Southeast 125 144 6,000 540 Climbing Boston Center
07:22AM 43.5878 -72.0847 131° Southeast 125 144 6,500 540 Climbing Boston Center
07:23AM 43.5583 -72.0475 138° Southeast 132 152 7,100 300 Climbing Boston Center
07:24AM 43.5292 -72.0078 135° Southeast 145 167 7,100 -60 Level Boston Center
07:25AM 43.4978 -71.9678 137° Southeast 145 167 7,000 -60 Descending Boston Center
07:26AM 43.4683 -71.9253 134° Southeast 145 167 7,000  Level Boston Center
07:27AM 43.4389 -71.8853 135° Southeast 145 167 7,100  Climbing Boston Center
07:28AM 43.4075 -71.8372 132° Southeast 145 167 7,100  Level Boston Center
07:29AM 43.3803 -71.8003 135° Southeast 145 167 7,100  Level Boston Center
07:30AM 43.3425 -71.7606 143° Southeast 145 167 7,100 -60 Level Boston Center
07:31AM 43.3131 -71.7267 140° Southeast 151 174 7,000 -60 Descending Boston Center
07:32AM 43.2775 -71.6844 139° Southeast 157 181 7,000  Level Boston Center
07:33AM 43.2458 -71.6533 144° Southeast 157 181 7,000  Level Boston Center
07:33AM 43.2167 -71.6167 137° Southeast 153 176 7,000  Level KA90
07:35AM 43.1833 -71.5833 144° Southeast 152 175 7,000  Level KA90
07:35AM 43.1500 -71.5500 144° Southeast 154 177 7,100  Climbing KA90
07:36AM 43.1167 -71.5167 144° Southeast 156 180 7,100  Level KA90
07:37AM 43.1136 -71.5044 109° East 157 181 7,100  Level Boston Center
07:38AM 43.0500 -71.4333 141° Southeast 155 178 7,100  Level KA90
07:39AM 43.0167 -71.4000 144° Southeast 155 178 7,100 -120 Level KA90
07:40AM 42.9833 -71.3667 144° Southeast 156 180 6,900 -360 Descending KA90
07:41AM 42.9500 -71.3167 132° Southeast 170 196 6,500 -420 Descending KA90
07:42AM 42.9167 -71.2833 144° Southeast 175 201 6,100 -240 Descending KA90
07:43AM 42.8667 -71.2667 166° South 161 185 6,100  Level KA90
07:44AM 42.8333 -71.2500 160° South 156 180 6,100 -120 Level KA90
07:45AM 42.7833 -71.2167 154° Southeast 156 180 5,900 -300 Descending KA90
07:46AM 42.7500 -71.2000 160° South 168 193 5,600 -420 Descending KA90
07:47AM 42.7000 -71.1833 166° South 175 201 5,100 -240 Descending KA90
07:49AM 42.6500 -71.1500 154° Southeast 162 186 5,100  Level KA90
07:49AM 42.6167 -71.1333 160° South 157 181 5,100  Level KA90
07:50AM 42.5667 -71.1167 166° South 154 177 5,100  Level KA90
07:51AM 42.5333 -71.0833 144° Southeast 156 180 5,100  Level KA90
07:53AM 42.4833 -71.0667 166° South 156 180 5,100  Level KA90
07:54AM 42.4500 -71.0667 180° South 158 182 5,100  Level KA90
07:55AM 42.4000 -71.0833 194° South 156 180 5,100  Level KA90
07:56AM 42.3667 -71.1167 216° Southwest 155 178 5,100  Level KA90
07:57AM 42.3333 -71.1333 200° South 155 178 5,100 -240 Level KA90
07:57AM 42.2833 -71.1667 206° Southwest 162 186 4,700 -600 Descending KA90
07:58AM 42.2500 -71.1833 200° South 163 188 4,000 -660 Descending KA90
08:00AM 42.2000 -71.2000 194° South 157 181 3,400 -480 Descending KA90
08:00AM 42.1833 -71.1500 114° Southeast 160 184 3,100 -240 Descending KA90
08:01AM 42.1667 -71.1000 114° Southeast 179 206 3,000 -60 Descending KA90
08:03AM 42.2167 -71.0667 26° Northeast 174 200 3,000 -480 Level KA90
08:04AM 42.2667 -71.0500 14° North 178 205 2,100 -900 Descending KA90
08:05AM 42.3000 -71.0333 20° North 142 163 1,200 -900 Descending KA90
08:07AM 42.3500 -71.0000 45° Northeast  Level FlightAware Approximate
08:14AM 42.3630 -71.0064 45° Northeast  Level Estimated